createdAt,value
2023-01-11T00:00:29.870Z,12.00
2023-01-11T00:02:58.233Z,11.79
2023-01-11T00:05:24.934Z,11.03
2023-01-11T00:07:51.918Z,11.92
2023-01-11T00:10:19.317Z,11.48
2023-01-11T00:12:46.693Z,11.55
2023-01-11T00:15:14.047Z,11.65
2023-01-11T00:17:41.511Z,11.11
2023-01-11T00:20:09.908Z,11.39
2023-01-11T00:22:36.964Z,10.93
2023-01-11T00:25:04.023Z,11.13
2023-01-11T00:27:30.873Z,11.41
2023-01-11T00:29:57.527Z,11.61
2023-01-11T00:32:24.205Z,11.65
2023-01-11T00:34:50.841Z,11.66
2023-01-11T00:37:17.425Z,11.83
2023-01-11T00:39:44.175Z,11.72
2023-01-11T00:42:30.682Z,11.37
2023-01-11T00:45:15.850Z,11.78
2023-01-11T00:47:57.703Z,11.32
2023-01-11T00:50:25.868Z,11.87
2023-01-11T00:52:52.793Z,11.65
2023-01-11T00:55:19.546Z,11.65
2023-01-11T00:57:46.149Z,11.80
2023-01-11T01:00:13.174Z,11.95
2023-01-11T01:02:40.516Z,11.98
2023-01-11T01:05:07.484Z,11.08
2023-01-11T01:07:34.114Z,11.42
2023-01-11T01:10:00.695Z,11.54
2023-01-11T01:12:46.530Z,11.59
2023-01-11T01:15:13.399Z,12.09
2023-01-11T01:17:40.041Z,11.44
2023-01-11T01:20:07.445Z,11.72
2023-01-11T01:22:34.346Z,11.59
2023-01-11T01:25:00.900Z,12.07
2023-01-11T01:27:27.764Z,11.83
2023-01-11T01:29:54.627Z,11.71
2023-01-11T01:32:21.524Z,11.61
2023-01-11T01:34:53.789Z,11.08
2023-01-11T01:37:20.453Z,11.74
2023-01-11T01:39:47.057Z,11.67
2023-01-11T01:42:20.134Z,11.59
2023-01-11T01:45:02.483Z,11.25
2023-01-11T01:47:38.626Z,11.73
2023-01-11T01:50:12.097Z,11.44
2023-01-11T01:52:38.927Z,11.21
2023-01-11T01:55:11.455Z,12.02
2023-01-11T01:57:41.703Z,11.86
2023-01-11T02:00:11.359Z,11.80
2023-01-11T02:02:40.981Z,11.87
2023-01-11T02:05:08.720Z,12.20
2023-01-11T02:07:38.698Z,11.72
2023-01-11T02:10:15.299Z,11.75
2023-01-11T02:13:12.171Z,11.70
2023-01-11T02:15:38.897Z,11.91
2023-01-11T02:18:11.773Z,11.60
2023-01-11T02:21:32.761Z,11.68
2023-01-11T02:24:21.075Z,12.15
2023-01-11T02:27:19.652Z,12.38
2023-01-11T02:29:49.147Z,11.88
2023-01-11T02:32:31.537Z,12.26
2023-01-11T02:35:26.563Z,11.97
2023-01-11T02:38:19.133Z,11.71
2023-01-11T02:41:07.285Z,11.80
2023-01-11T02:44:07.756Z,12.12
2023-01-11T02:46:39.858Z,11.75
2023-01-11T02:49:21.683Z,12.41
2023-01-11T02:51:56.603Z,12.37
2023-01-11T02:54:24.577Z,12.39
2023-01-11T02:56:56.301Z,12.06
2023-01-11T02:59:28.102Z,12.42
2023-01-11T03:01:57.253Z,12.32
2023-01-11T03:04:28.501Z,12.39
2023-01-11T03:07:20.410Z,12.53
2023-01-11T03:10:01.803Z,12.29
2023-01-11T03:12:55.504Z,12.69
2023-01-11T03:15:22.036Z,12.59
2023-01-11T03:18:18.158Z,12.16
2023-01-11T03:20:55.860Z,12.34
2023-01-11T03:23:26.780Z,11.96
2023-01-11T03:27:01.361Z,12.58
2023-01-11T03:29:39.876Z,12.65
2023-01-11T03:32:21.062Z,12.69
2023-01-11T03:35:06.591Z,12.91
2023-01-11T03:37:59.440Z,12.67
2023-01-11T03:40:31.153Z,12.81
2023-01-11T03:43:12.320Z,12.82
2023-01-11T03:45:51.127Z,12.91
2023-01-11T03:48:22.532Z,12.84
2023-01-11T03:50:51.481Z,12.73
2023-01-11T03:53:20.865Z,12.70
2023-01-11T03:55:53.343Z,12.96
2023-01-11T03:58:20.212Z,13.13
2023-01-11T04:00:48.619Z,12.73
2023-01-11T04:03:15.839Z,12.70
2023-01-11T04:05:46.446Z,13.07
2023-01-11T04:08:13.334Z,13.18
2023-01-11T04:10:40.136Z,13.12
2023-01-11T04:13:06.806Z,12.87
2023-01-11T04:15:34.735Z,12.57
2023-01-11T04:18:07.562Z,13.07
2023-01-11T04:20:36.994Z,13.10
2023-01-11T04:23:07.639Z,13.34
2023-01-11T04:25:34.368Z,13.26
2023-01-11T04:28:04.219Z,13.33
2023-01-11T04:30:31.768Z,13.13
2023-01-11T04:33:01.746Z,13.15
2023-01-11T04:35:28.841Z,12.90
2023-01-11T04:37:57.186Z,13.09
2023-01-11T04:40:25.199Z,13.34
2023-01-11T04:42:51.924Z,13.24
2023-01-11T04:45:19.169Z,13.25
2023-01-11T04:47:45.769Z,13.10
2023-01-11T04:50:12.821Z,13.50
2023-01-11T04:52:41.493Z,12.72
2023-01-11T04:55:09.150Z,13.00
2023-01-11T04:57:36.169Z,13.64
2023-01-11T05:00:05.066Z,13.07
2023-01-11T05:02:31.650Z,13.37
2023-01-11T05:04:58.571Z,12.88
2023-01-11T05:07:25.486Z,13.18
2023-01-11T05:09:52.085Z,13.23
2023-01-11T05:12:18.711Z,13.27
2023-01-11T05:14:45.431Z,13.65
2023-01-11T05:17:16.135Z,13.36
2023-01-11T05:19:43.330Z,13.24
2023-01-11T05:22:10.509Z,13.51
2023-01-11T05:24:37.075Z,13.61
2023-01-11T05:27:04.927Z,13.24
2023-01-11T05:29:31.659Z,13.70
2023-01-11T05:31:58.256Z,13.62
2023-01-11T05:34:24.796Z,13.20
2023-01-11T05:36:51.476Z,13.67
2023-01-11T05:39:18.092Z,13.67
2023-01-11T05:41:44.981Z,13.48
2023-01-11T05:44:31.290Z,13.81
2023-01-11T05:46:58.149Z,13.76
2023-01-11T05:49:24.901Z,13.82
2023-01-11T05:51:51.470Z,13.60
2023-01-11T05:54:18.052Z,13.70
2023-01-11T05:56:47.570Z,13.57
2023-01-11T05:59:14.179Z,13.95
2023-01-11T06:01:40.796Z,13.71
2023-01-11T06:04:08.492Z,13.90
2023-01-11T06:06:35.966Z,13.85
2023-01-11T06:09:02.852Z,14.12
2023-01-11T06:11:29.400Z,13.89
2023-01-11T06:13:56.104Z,13.71
2023-01-11T06:16:23.639Z,14.31
2023-01-11T06:18:52.604Z,14.24
2023-01-11T06:21:20.158Z,14.02
2023-01-11T06:23:50.591Z,14.26
2023-01-11T06:26:20.066Z,14.15
2023-01-11T06:28:47.286Z,13.99
2023-01-11T06:31:17.073Z,14.16
2023-01-11T06:33:44.605Z,14.16
2023-01-11T06:36:13.501Z,14.22
2023-01-11T06:38:40.675Z,14.14
2023-01-11T06:41:08.464Z,14.38
2023-01-11T06:43:36.721Z,14.33
2023-01-11T06:46:04.236Z,13.99
2023-01-11T06:48:31.291Z,14.30
2023-01-11T06:50:59.078Z,14.63
2023-01-11T06:53:28.892Z,14.06
2023-01-11T06:55:57.587Z,14.54
2023-01-11T06:58:25.575Z,14.81
2023-01-11T07:00:53.911Z,14.80
2023-01-11T07:03:21.262Z,14.66
2023-01-11T07:05:48.025Z,14.42
2023-01-11T07:08:14.998Z,14.75
2023-01-11T07:10:43.641Z,14.55
2023-01-11T07:13:12.207Z,14.10
2023-01-11T07:15:39.173Z,14.16
2023-01-11T07:18:08.516Z,13.84
2023-01-11T07:20:35.091Z,13.92
2023-01-11T07:23:02.011Z,13.94
2023-01-11T07:25:29.548Z,14.01
2023-01-11T07:28:00.819Z,13.92
2023-01-11T07:30:29.612Z,14.15
2023-01-11T07:32:58.000Z,13.63
2023-01-11T07:35:24.874Z,14.14
2023-01-11T07:37:51.488Z,13.98
2023-01-11T07:40:18.622Z,14.19
2023-01-11T07:43:10.810Z,14.24
2023-01-11T07:45:47.238Z,14.12
2023-01-11T07:48:15.521Z,13.91
2023-01-11T07:50:44.724Z,14.15
2023-01-11T07:53:12.673Z,13.78
2023-01-11T07:55:40.536Z,14.16
2023-01-11T07:58:10.788Z,14.06
2023-01-11T08:00:37.416Z,14.20
2023-01-11T08:03:04.185Z,14.01
2023-01-11T08:05:30.838Z,14.12
2023-01-11T08:07:57.683Z,14.10
2023-01-11T08:10:24.817Z,14.25
2023-01-11T08:13:10.052Z,14.22
2023-01-11T08:15:36.916Z,14.34
2023-01-11T08:18:06.651Z,14.49
2023-01-11T08:20:33.838Z,14.34
2023-01-11T08:23:05.770Z,14.42
2023-01-11T08:25:33.328Z,14.49
2023-01-11T08:28:05.618Z,14.52
2023-01-11T08:30:32.373Z,14.57
2023-01-11T08:33:01.634Z,14.53
2023-01-11T08:35:28.521Z,14.54
2023-01-11T08:37:55.090Z,14.33
2023-01-11T08:40:24.032Z,14.44
2023-01-11T08:42:57.573Z,14.55
2023-01-11T08:45:24.982Z,14.44
2023-01-11T08:47:52.296Z,14.67
2023-01-11T08:50:22.098Z,14.63
2023-01-11T08:52:50.908Z,14.83
2023-01-11T08:55:18.023Z,14.81
2023-01-11T08:57:44.979Z,14.90
2023-01-11T09:00:12.304Z,14.79
2023-01-11T09:02:38.908Z,14.92
2023-01-11T09:05:06.013Z,14.73
2023-01-11T09:07:32.585Z,14.77
2023-01-11T09:09:59.220Z,14.82
2023-01-11T09:12:27.586Z,14.99
2023-01-11T09:14:54.186Z,14.90
2023-01-11T09:17:20.781Z,14.84
2023-01-11T09:19:47.331Z,14.78
2023-01-11T09:22:13.974Z,15.07
2023-01-11T09:24:40.577Z,14.99
2023-01-11T09:27:07.227Z,15.09
2023-01-11T09:29:37.052Z,14.95
2023-01-11T09:32:04.364Z,14.99
2023-01-11T09:34:31.004Z,14.53
2023-01-11T09:37:00.499Z,15.07
2023-01-11T09:39:28.727Z,15.00
2023-01-11T09:42:11.236Z,14.80
2023-01-11T09:45:24.553Z,15.01
2023-01-11T09:48:04.750Z,15.03
2023-01-11T09:50:41.139Z,15.10
2023-01-11T09:53:09.763Z,14.87
2023-01-11T09:55:46.716Z,15.06
2023-01-11T09:58:24.093Z,15.03
2023-01-11T10:01:03.301Z,14.71
2023-01-11T10:03:58.389Z,14.57
2023-01-11T10:06:58.553Z,13.95
2023-01-11T10:18:22.038Z,15.11
2023-01-11T10:18:53.775Z,15.08
2023-01-11T10:21:32.547Z,14.80
2023-01-11T10:24:12.291Z,15.00
2023-01-11T10:26:40.336Z,15.12
2023-01-11T10:29:16.920Z,14.89
2023-01-11T10:32:09.548Z,14.67
2023-01-11T10:35:13.596Z,15.21
2023-01-11T10:38:04.917Z,15.02
2023-01-11T10:41:03.300Z,14.95
2023-01-11T10:43:35.186Z,14.72
2023-01-11T10:46:13.402Z,14.86
2023-01-11T10:48:42.574Z,14.72
2023-01-11T10:51:32.267Z,14.66
2023-01-11T10:54:14.230Z,14.88
2023-01-11T10:57:01.920Z,14.82
2023-01-11T10:59:49.781Z,14.78
2023-01-11T11:02:34.698Z,14.66
2023-01-11T11:05:05.357Z,14.65
2023-01-11T11:07:43.924Z,14.96
2023-01-11T11:10:32.247Z,15.27
2023-01-11T11:13:13.902Z,14.97
2023-01-11T11:15:55.208Z,15.05
2023-01-11T11:18:22.238Z,15.00
2023-01-11T11:20:48.875Z,14.84
2023-01-11T11:23:19.254Z,14.79
2023-01-11T11:25:57.413Z,15.24
2023-01-11T11:28:25.954Z,15.12
2023-01-11T11:30:55.915Z,15.15
2023-01-11T11:33:23.959Z,15.29
2023-01-11T11:36:07.918Z,15.22
2023-01-11T11:38:35.727Z,15.34
2023-01-11T11:41:17.243Z,15.42
2023-01-11T11:43:46.595Z,15.25
2023-01-11T11:46:19.450Z,15.02
2023-01-11T11:49:16.234Z,15.27
2023-01-11T11:51:45.674Z,15.12
2023-01-11T11:54:25.787Z,15.37
2023-01-11T11:56:53.779Z,15.24
2023-01-11T11:59:22.719Z,15.36
2023-01-11T12:01:57.766Z,15.31
2023-01-11T12:04:37.023Z,15.00
2023-01-11T12:07:23.972Z,15.15
2023-01-11T12:09:59.893Z,15.27
2023-01-11T12:12:29.221Z,15.23
2023-01-11T12:15:19.604Z,15.48
2023-01-11T12:17:46.791Z,15.35
2023-01-11T12:20:22.374Z,15.23
2023-01-11T12:22:50.063Z,14.92
2023-01-11T12:25:21.559Z,15.04
2023-01-11T12:28:15.359Z,15.28
2023-01-11T12:30:57.065Z,15.38
2023-01-11T12:33:26.450Z,14.69
2023-01-11T12:36:08.026Z,14.89
2023-01-11T12:39:04.984Z,14.97
2023-01-11T12:41:47.969Z,14.92
2023-01-11T12:44:48.213Z,14.88
2023-01-11T12:47:35.076Z,14.86
2023-01-11T12:50:27.963Z,14.94
2023-01-11T12:53:28.805Z,14.81
2023-01-11T12:56:20.335Z,15.01
2023-01-11T12:58:56.218Z,14.76
2023-01-11T13:01:36.734Z,15.06
2023-01-11T13:04:57.253Z,15.11
2023-01-11T13:07:35.664Z,15.05
2023-01-11T13:10:20.807Z,14.98
2023-01-11T13:12:57.637Z,15.02
2023-01-11T13:15:53.515Z,14.68
2023-01-11T13:18:23.338Z,14.92
2023-01-11T13:21:28.401Z,15.06
2023-01-11T13:24:03.589Z,15.01
2023-01-11T13:26:40.218Z,15.32
2023-01-11T13:29:11.632Z,15.19
2023-01-11T13:31:38.994Z,15.12
2023-01-11T13:34:16.893Z,15.25
2023-01-11T13:36:48.716Z,14.94
2023-01-11T13:39:28.621Z,15.18
2023-01-11T13:42:03.412Z,15.48
2023-01-11T13:44:45.357Z,15.17
2023-01-11T13:47:25.606Z,15.13
2023-01-11T13:50:01.167Z,15.08
2023-01-11T13:52:27.814Z,15.07
2023-01-11T13:55:04.221Z,14.85
2023-01-11T13:57:55.091Z,15.21
2023-01-11T14:00:23.855Z,15.04
2023-01-11T14:03:05.820Z,14.85
2023-01-11T14:05:44.619Z,14.94
2023-01-11T14:08:11.069Z,14.91
2023-01-11T14:10:49.548Z,14.69
2023-01-11T14:13:53.188Z,14.67
2023-01-11T14:16:58.341Z,14.73
2023-01-11T14:19:50.816Z,14.51
2023-01-11T14:22:30.841Z,14.33
2023-01-11T14:25:02.700Z,14.33
2023-01-11T14:27:41.509Z,14.67
2023-01-11T14:30:16.631Z,14.54
2023-01-11T14:33:20.510Z,14.44
2023-01-11T14:35:59.694Z,14.29
2023-01-11T14:38:49.999Z,14.16
2023-01-11T14:41:45.884Z,14.30
2023-01-11T14:44:28.657Z,13.99
2023-01-11T14:47:28.636Z,14.59
2023-01-11T14:50:13.463Z,14.29
2023-01-11T14:52:42.201Z,14.34
2023-01-11T14:55:25.778Z,14.23
2023-01-11T14:58:02.425Z,13.67
2023-01-11T15:00:28.943Z,13.72
2023-01-11T15:03:01.215Z,14.14
2023-01-11T15:05:33.659Z,14.24
2023-01-11T15:08:15.629Z,13.77
2023-01-11T15:10:55.343Z,13.91
2023-01-11T15:13:25.551Z,14.08
2023-01-11T15:16:24.575Z,14.04
2023-01-11T15:18:51.428Z,14.08
2023-01-11T15:21:27.607Z,14.04
2023-01-11T15:23:57.577Z,14.30
2023-01-11T15:26:26.907Z,14.25
2023-01-11T15:28:58.478Z,13.69
2023-01-11T15:31:54.377Z,14.03
2023-01-11T15:34:20.892Z,14.24
2023-01-11T15:37:11.413Z,14.10
2023-01-11T15:39:56.610Z,14.12
2023-01-11T15:42:49.342Z,14.19
2023-01-11T15:45:18.942Z,13.80
2023-01-11T15:48:11.711Z,13.91
2023-01-11T15:50:57.010Z,14.29
2023-01-11T15:53:23.505Z,14.12
2023-01-11T15:56:28.533Z,14.20
2023-01-11T15:59:33.834Z,14.31
2023-01-11T16:02:15.625Z,14.35
2023-01-11T16:04:51.600Z,14.10
2023-01-11T16:07:46.602Z,13.98
2023-01-11T16:10:44.005Z,13.83
2023-01-11T16:13:19.773Z,13.71
2023-01-11T16:16:05.281Z,13.31
2023-01-11T16:18:56.856Z,13.13
2023-01-11T16:21:34.040Z,13.11
2023-01-11T16:24:16.390Z,13.30
2023-01-11T16:26:43.928Z,13.02
2023-01-11T16:29:14.913Z,13.14
2023-01-11T16:31:58.741Z,13.26
2023-01-11T16:34:27.053Z,13.08
2023-01-11T16:36:53.607Z,13.21
2023-01-11T16:39:23.593Z,13.04
2023-01-11T16:41:55.908Z,12.99
2023-01-11T16:44:29.998Z,13.04
2023-01-11T16:47:16.808Z,13.83
2023-01-11T16:49:48.811Z,13.34
2023-01-11T16:52:27.579Z,13.25
2023-01-11T16:54:56.072Z,13.34
2023-01-11T16:57:30.294Z,13.68
2023-01-11T17:00:03.327Z,13.70
2023-01-11T17:02:32.768Z,14.04
2023-01-11T17:04:59.480Z,13.71
2023-01-11T17:07:30.492Z,13.72
2023-01-11T17:10:21.112Z,13.48
2023-01-11T17:13:33.982Z,12.89
2023-01-11T17:16:08.319Z,12.90
2023-01-11T17:18:38.633Z,12.86
2023-01-11T17:21:06.775Z,13.11
2023-01-11T17:23:33.483Z,12.78
2023-01-11T17:26:01.303Z,12.82
2023-01-11T17:28:28.993Z,12.90
2023-01-11T17:30:55.817Z,12.45
2023-01-11T17:33:33.389Z,12.55
2023-01-11T17:36:01.717Z,12.46
2023-01-11T17:38:29.846Z,12.56
2023-01-11T17:40:57.721Z,12.59
2023-01-11T17:43:47.771Z,12.73
2023-01-11T17:46:27.404Z,13.27
2023-01-11T17:48:59.721Z,13.15
2023-01-11T17:51:28.721Z,13.33
2023-01-11T17:53:55.346Z,12.92
2023-01-11T17:56:41.529Z,13.55
2023-01-11T17:59:11.220Z,13.47
2023-01-11T18:01:38.179Z,13.80
2023-01-11T18:04:04.975Z,13.56
2023-01-11T18:06:40.406Z,13.53
2023-01-11T18:09:28.870Z,13.56
2023-01-11T18:12:33.904Z,13.42
2023-01-11T18:15:05.694Z,13.34
2023-01-11T18:17:32.235Z,13.63
2023-01-11T18:20:00.177Z,13.65
2023-01-11T18:22:40.387Z,13.86
2023-01-11T18:25:19.142Z,13.49
2023-01-11T18:27:46.949Z,13.34
2023-01-11T18:30:31.801Z,13.76
2023-01-11T18:33:01.913Z,13.61
2023-01-11T18:35:29.603Z,12.93
2023-01-11T18:37:56.381Z,13.23
2023-01-11T18:40:22.949Z,13.06
2023-01-11T18:42:52.078Z,12.67
2023-01-11T18:45:20.094Z,12.83
2023-01-11T18:47:46.732Z,12.61
2023-01-11T18:50:14.076Z,12.90
2023-01-11T18:52:40.971Z,13.00
2023-01-11T18:55:11.275Z,13.67
2023-01-11T18:57:37.849Z,13.49
2023-01-11T19:00:04.830Z,13.49
2023-01-11T19:05:20.915Z,13.42
2023-01-11T19:07:48.460Z,13.62
2023-01-11T19:10:17.070Z,13.63
2023-01-11T19:12:44.665Z,13.83
2023-01-11T19:15:12.559Z,13.89
2023-01-11T19:17:39.937Z,13.60
2023-01-11T19:20:09.096Z,13.88
2023-01-11T19:22:37.117Z,13.64
2023-01-11T19:25:04.727Z,13.94
2023-01-11T19:27:31.331Z,13.33
2023-01-11T19:29:58.181Z,13.67
2023-01-11T19:32:25.719Z,13.66
2023-01-11T19:34:53.253Z,13.60
2023-01-11T19:37:20.704Z,13.81
2023-01-11T19:39:47.322Z,13.45
2023-01-11T19:42:13.935Z,13.29
2023-01-11T19:44:40.486Z,13.36
2023-01-11T19:47:13.455Z,13.39
2023-01-11T19:49:41.497Z,13.58
2023-01-11T19:52:13.241Z,13.12
2023-01-11T19:54:44.499Z,13.24
2023-01-11T19:57:18.909Z,13.40
2023-01-11T19:59:46.098Z,13.64
2023-01-11T20:02:15.448Z,13.85
2023-01-11T20:04:42.279Z,13.68
2023-01-11T20:07:10.758Z,13.68
2023-01-11T20:09:37.884Z,13.30
2023-01-11T20:12:06.026Z,13.67
2023-01-11T20:14:33.857Z,13.66
2023-01-11T20:17:00.941Z,13.45
2023-01-11T20:19:27.808Z,13.31
2023-01-11T20:21:54.509Z,13.15
2023-01-11T20:24:27.859Z,13.39
2023-01-11T20:26:55.864Z,12.97
2023-01-11T20:29:22.509Z,13.18
2023-01-11T20:31:49.559Z,13.46
2023-01-11T20:34:17.472Z,13.47
2023-01-11T20:36:45.012Z,13.40
2023-01-11T20:39:11.959Z,13.62
2023-01-11T20:41:47.379Z,13.53
2023-01-11T20:44:18.382Z,13.58
2023-01-11T20:46:47.993Z,13.33
2023-01-11T20:49:16.738Z,13.02
2023-01-11T20:51:44.544Z,13.10
2023-01-11T20:54:11.917Z,13.13
2023-01-11T20:56:39.333Z,13.24
2023-01-11T20:59:07.851Z,12.95
2023-01-11T21:01:36.167Z,12.98
2023-01-11T21:04:08.213Z,12.96
2023-01-11T21:06:37.276Z,12.77
2023-01-11T21:09:05.061Z,12.46
2023-01-11T21:11:32.005Z,12.63
2023-01-11T21:13:59.949Z,12.29
2023-01-11T21:16:28.356Z,12.80
2023-01-11T21:18:57.087Z,12.40
2023-01-11T21:21:24.689Z,12.66
2023-01-11T21:23:58.589Z,12.75
2023-01-11T21:26:26.719Z,12.97
2023-01-11T21:28:59.374Z,12.63
2023-01-11T21:31:28.188Z,12.73
2023-01-11T21:33:55.174Z,12.83
2023-01-11T21:36:23.928Z,12.66
2023-01-11T21:38:51.088Z,12.33
2023-01-11T21:41:43.242Z,12.61
2023-01-11T21:44:11.334Z,12.91
2023-01-11T21:46:39.112Z,12.86
2023-01-11T21:49:06.219Z,12.77
2023-01-11T21:51:34.512Z,12.59
2023-01-11T21:54:08.237Z,12.90
2023-01-11T21:56:35.443Z,12.56
2023-01-11T21:59:02.137Z,12.91
2023-01-11T22:01:28.757Z,12.88
2023-01-11T22:03:55.914Z,13.01
2023-01-11T22:06:23.011Z,12.60
2023-01-11T22:08:49.730Z,12.73
2023-01-11T22:11:17.612Z,12.76
2023-01-11T22:13:44.499Z,13.05
2023-01-11T22:16:14.065Z,12.68
2023-01-11T22:18:41.258Z,12.97
2023-01-11T22:21:10.070Z,12.90
2023-01-11T22:23:37.271Z,13.00
2023-01-11T22:26:12.746Z,13.35
2023-01-11T22:28:58.692Z,13.07
2023-01-11T22:31:27.396Z,13.06
2023-01-11T22:33:55.346Z,12.86
2023-01-11T22:36:23.165Z,13.25
2023-01-11T22:38:50.045Z,13.02
2023-01-11T22:41:16.995Z,12.94
2023-01-11T22:43:44.659Z,12.94
2023-01-11T22:46:17.067Z,13.21
2023-01-11T22:48:43.835Z,13.18
2023-01-11T22:51:11.509Z,12.45
2023-01-11T22:53:39.705Z,12.71
2023-01-11T22:56:10.379Z,13.10
2023-01-11T22:58:37.232Z,12.90
2023-01-11T23:01:14.101Z,13.47
2023-01-11T23:03:41.667Z,13.03
2023-01-11T23:06:09.468Z,13.62
2023-01-11T23:08:43.844Z,13.31
2023-01-11T23:11:35.481Z,13.55
2023-01-11T23:14:08.388Z,13.56
2023-01-11T23:16:36.271Z,13.43
2023-01-11T23:19:05.223Z,13.37
2023-01-11T23:21:31.980Z,13.10
2023-01-11T23:24:01.429Z,13.45
2023-01-11T23:26:28.071Z,13.79
2023-01-11T23:28:54.683Z,13.52
2023-01-11T23:31:23.178Z,13.24
2023-01-11T23:33:53.237Z,13.19
2023-01-11T23:36:21.566Z,13.32
2023-01-11T23:38:48.625Z,13.17
2023-01-11T23:41:36.659Z,12.96
2023-01-11T23:44:11.666Z,13.53
2023-01-11T23:46:57.802Z,13.28
2023-01-11T23:49:25.095Z,13.52
2023-01-11T23:51:52.382Z,13.63
2023-01-11T23:54:19.143Z,13.17
2023-01-11T23:56:46.067Z,13.37
2023-01-11T23:59:12.741Z,13.18
